Historyczne dane pomiarowe

Dodano dane terminowe – wersja testowa.

Dane z okresu 1951-2019

Wersja bazy: 1.34 [2019-03-16, lista zmian], aktualizacja planowana na 2019-04-15

Dane meteo z obszaru Polski uzyskane na podstawie danych udostępnionych przez Instytut Meteorologii i Gospodarki Wodnej – Państwowy Instytut Badawczy.

 

Wybierz Datę:    

       

TemperaturaWilgotnośćWiatrCiśnienieOpadyŚniegCzas trwania zjawisk
 Stacja t tx tn tng RH VA  wxwx mslp ppp RRR   cm mm wxwxwxwxwxwxwx
1961-08-14 14.7 18.6 8.5- 79.5- 8.0 1.7---- 2.9------------
1961-08-13 13.5 17.8 9.3- 80.5- 4.3 2.7---- 0.0------------
1961-08-12 15.6 20.4 13.4- 87.0- 5.7 1.3---- 0.2------------
1961-08-11 16.7 19.8 13.1- 88.8- 7.3 1.0---- 0.0------------
1961-08-10 18.3 24.5 11.8- 76.5- 7.0 1.3---- 0.6------------
1961-08-09 16.8 22.7 13.8- 78.8- 4.7 2.0---- 0.0------------
1961-08-08 16.0 20.6 9.6- 80.0- 6.7 1.7---- 0.1------------
1961-08-07 14.9 19.2 12.6- 88.8- 7.0 1.0---- 9.6------------
1961-08-06 17.5 25.1 13.4- 85.0- 6.3 2.0---- 0.3------------
1961-08-05 15.6 19.3 13.7- 81.8- 5.7 2.7---- 1.9------------
1961-08-04 13.9 17.0 8.1- 87.3- 7.7 3.0---- 4.3------------
1961-08-03 13.6 17.4 11.4- 91.0- 5.3 1.3---- 3.3------------
1961-08-02 16.7 20.5 12.2- 82.0- 7.3 2.0---- 0.0------------
1961-08-01 14.6 16.7 13.3- 92.0- 8.0 3.7---- 5.8------------
1961-07-31 14.7 17.2 13.3- 95.3- 6.7 2.0---- 32.4------------
1961-07-30 16.0 19.8 12.6- 86.5- 7.0 2.0---- 0.0------------
1961-07-29 14.3 17.2 11.5- 82.8- 6.7 2.0---- 0.2------------
1961-07-28 13.1 15.1 11.9- 88.8- 7.7 1.3---- 0.7------------
1961-07-27 14.9 20.0 13.3- 87.8- 7.7 4.0---- 5.6------------
1961-07-26 16.4 21.0 13.3- 86.5- 8.0 2.7---- 1.8------------
1961-07-25 15.2 17.8 11.5- 75.3- 7.3 3.0---- 0.1------------
1961-07-24 14.0 17.6 11.9- 83.0- 5.7 3.0---- 0.0------------
1961-07-23 14.8 17.8 12.9- 81.5- 7.0 2.7---- 0.1------------
1961-07-22 15.3 18.3 12.3- 88.0- 7.3 3.3---- 2.4------------
1961-07-21 15.1 17.9 13.8- 90.8- 7.7 1.7---- 11.1------------
1961-07-20 16.4 20.3 10.8- 76.5- 6.7 1.7---- 2.5------------
1961-07-19 16.1 19.8 12.4- 83.8- 7.3 2.3---- 1.9------------
1961-07-18 14.3 17.7 12.8- 91.8- 7.3 1.3---- 3.2------------
1961-07-17 16.3 20.6 12.3- 80.3- 6.7 1.3---- 0.0------------
1961-07-16 14.7 16.9 8.3- 91.0- 7.3 1.0---- 2.5------------
1961-07-15 14.9 20.8 11.1- 83.8- 4.7 1.0---- 1.1------------
1961-07-14 14.9 19.7 13.1- 86.5- 7.7 2.3---- 0.1------------
1961-07-13 20.4 27.4 12.1- 84.5- 5.7 2.7---- 21.5------------
1961-07-12 17.5 21.7 13.7- 82.3- 6.7 1.7---- 0.0------------
1961-07-11 14.9 18.8 10.2- 76.0- 6.7 3.0---- 0.3------------
1961-07-10 13.9 17.2 10.6- 81.8- 7.0 3.7---- 0.1------------
1961-07-09 14.7 16.6 12.9- 87.8- 7.7 2.0---- 12.9------------
1961-07-08 14.7 20.2 8.3- 85.3- 6.7 1.3---- 3.3------------
1961-07-07 13.0 15.8 9.7- 81.5- 6.0 2.3---- 0.1------------
1961-07-06 12.5 15.4 8.3- 76.5- 6.3 3.3---- 1.8------------
1961-07-05 12.9 16.5 11.4- 77.0- 6.3 4.0---- 2.5------------
1961-07-04 16.3 20.1 10.4- 78.5- 7.3 3.0---- 0.5------------
1961-07-03 21.6 31.6 11.9- 69.5- 4.0 1.7---- 0.0------------
1961-07-02 20.5 27.9 5.5- 64.0- 0.0 1.0---- 0.0------------
1961-07-01 17.9 25.3 6.8- 73.8- 0.7 1.0---- 0.0------------
1961-06-30 16.2 21.0 11.3- 75.5- 0.0 1.3---- 0.0------------
1961-06-29 15.6 18.5 12.7- 75.0- 4.0 3.0---- 0.0------------
1961-06-28 14.0 18.7 12.3- 67.5- 4.0 5.0---- 0.1------------
1961-06-27 22.1 29.4 16.4- 72.0- 5.7 3.3---- 0.6------------
1961-06-26 19.1 24.6 12.9- 69.8- 2.0 3.0---- 0.0------------
1961-06-25 20.0 25.9 13.5- 66.5- 6.3 3.7---- 0.0------------
1961-06-24 16.3 20.3 12.3- 67.8- 7.0 3.0---- 0.0------------
1961-06-23 16.5 20.0 8.4- 70.0- 6.0 2.3---- 0.0------------
1961-06-22 15.5 20.8 6.3- 61.8- 4.7 2.0---- 0.0------------
1961-06-21 13.5 18.8 9.1- 78.3- 3.7 2.7---- 0.3------------
1961-06-20 13.3 17.5 9.8- 68.0- 5.7 3.3---- 0.0------------
1961-06-19 14.2 18.3 10.6- 69.3- 4.7 5.0---- 0.0------------
1961-06-18 19.3 25.7 15.3- 75.3- 7.0 3.7---- 2.5------------
1961-06-17 17.3 21.5 11.1- 77.3- 5.3 2.7---- 0.0------------
1961-06-16 14.1 15.7 11.3- 85.3- 7.0 3.3---- 0.0------------
3211.3 ms

 

Źródłem pochodzenia danych jest Instytut Meteorologii i Gospodarki Wodnej – Państwowy Instytut Badawczy. Dane Instytutu Meteorologii i Gospodarki Wodnej – Państwowego Instytutu Badawczego zostały przetworzone.

Dane źródłowe można odnaleźć na stronie https://dane.imgw.pl